Check out our new PWSWeather beta!
PWSweather.com
Personal Weather Stations
Station Observations

YeovilGB

Lat: 50.949, Lon: -2.627

Elevation: 70

Station Type: Vantage Pro

http://www.yeovil-weather.me.uk/

High Low Average
Temperature 50.9°F10.5°C 47.7°F8.7°C 49.2°F9.6°C
Dew Point 50.1°F10.1°C 46.3°F7.9°C 48.2°F9.0°C
Winds 4.6 mph 7.4 kmh Calm Calm 1.0 mph ESE1.6 kmh ESE
Wind Gusts 11.5 mph18.5 kmh -- 3.0 mph4.8 kmh
Humidity 97% 95% 96%
Pressure 29.52 in999.7 mb 29.16 in987.5 mb -
Precipitation 0.02 in0.5 mm - -
Hour Temp Dew Point Humidity Winds Wind Gusts Pressure Precip Precip Rate Daily Precip Total
12:00 AM 48.1°F8.9°C 46.7°F8.2°C 95% 1.2 mph NE1.9 kmh NE 9.2 mph14.8 kmh 29.18 in988.1 mb - 0.00 in0.0 mm 0.00 in0.0 mm
12:10 AM 48.1°F8.9°C 46.7°F8.2°C 95% Calm Calm -- 29.18 in988.1 mb - 0.00 in0.0 mm 0.00 in0.0 mm
12:20 AM 48.0°F8.9°C 46.6°F8.1°C 95% Calm Calm 4.6 mph7.4 kmh 29.18 in988.1 mb - 0.00 in0.0 mm 0.00 in0.0 mm
12:30 AM 47.9°F8.8°C 46.5°F8.1°C 95% 1.2 mph NE1.9 kmh NE 6.9 mph11.1 kmh 29.18 in988.1 mb - 0.00 in0.0 mm 0.00 in0.0 mm
12:40 AM 47.8°F8.8°C 46.4°F8.0°C 95% 1.2 mph ENE1.9 kmh ENE 10.4 mph16.7 kmh 29.18 in988.1 mb - 0.00 in0.0 mm 0.00 in0.0 mm
12:50 AM 47.7°F8.7°C 46.3°F7.9°C 95% 1.2 mph ENE1.9 kmh ENE 8.1 mph13.0 kmh 29.18 in988.1 mb - 0.00 in0.0 mm 0.00 in0.0 mm
01:00 AM 47.7°F8.7°C 46.3°F7.9°C 95% 1.2 mph NE1.9 kmh NE 3.5 mph5.6 kmh 29.18 in988.1 mb - 0.00 in0.0 mm 0.00 in0.0 mm
01:10 AM 47.7°F8.7°C 46.3°F7.9°C 95% 1.2 mph NE1.9 kmh NE 8.1 mph13.0 kmh 29.18 in988.1 mb - 0.00 in0.0 mm 0.00 in0.0 mm
01:20 AM 47.7°F8.7°C 46.3°F7.9°C 95% Calm Calm -- 29.17 in987.8 mb - 0.00 in0.0 mm 0.00 in0.0 mm
01:30 AM 47.7°F8.7°C 46.3°F7.9°C 95% Calm Calm 1.2 mph1.9 kmh 29.17 in987.8 mb - 0.00 in0.0 mm 0.00 in0.0 mm
01:40 AM 47.8°F8.8°C 46.4°F8.0°C 95% 2.3 mph NE3.7 kmh NE 11.5 mph18.5 kmh 29.17 in987.8 mb - 0.00 in0.0 mm 0.00 in0.0 mm
01:50 AM 47.9°F8.8°C 46.5°F8.1°C 95% Calm Calm 5.8 mph9.3 kmh 29.17 in987.8 mb - 0.00 in0.0 mm 0.00 in0.0 mm
02:00 AM 47.9°F8.8°C 46.5°F8.1°C 95% 1.2 mph ENE1.9 kmh ENE 1.2 mph1.9 kmh 29.17 in987.8 mb - 0.00 in0.0 mm 0.00 in0.0 mm
02:10 AM 47.9°F8.8°C 46.5°F8.1°C 95% 1.2 mph E1.9 kmh E 4.6 mph7.4 kmh 29.16 in987.5 mb - 0.00 in0.0 mm 0.00 in0.0 mm
02:20 AM 48.0°F8.9°C 46.6°F8.1°C 95% 1.2 mph ENE1.9 kmh ENE 9.2 mph14.8 kmh 29.16 in987.5 mb - 0.00 in0.0 mm 0.00 in0.0 mm
02:30 AM 48.0°F8.9°C 46.6°F8.1°C 95% 1.2 mph NE1.9 kmh NE 1.2 mph1.9 kmh 29.16 in987.5 mb - 0.00 in0.0 mm 0.00 in0.0 mm
02:40 AM 48.0°F8.9°C 46.6°F8.1°C 95% 1.2 mph E1.9 kmh E 4.6 mph7.4 kmh 29.16 in987.5 mb - 0.00 in0.0 mm 0.00 in0.0 mm
02:50 AM 48.0°F8.9°C 46.6°F8.1°C 95% 2.3 mph ENE3.7 kmh ENE 4.6 mph7.4 kmh 29.16 in987.5 mb - 0.00 in0.0 mm 0.00 in0.0 mm
03:00 AM 48.1°F8.9°C 46.7°F8.2°C 95% Calm Calm 3.5 mph5.6 kmh 29.16 in987.5 mb - 0.00 in0.0 mm 0.00 in0.0 mm
03:10 AM 48.1°F8.9°C 46.7°F8.2°C 95% Calm Calm 4.6 mph7.4 kmh 29.16 in987.5 mb - 0.00 in0.0 mm 0.00 in0.0 mm
03:20 AM 48.2°F9.0°C 46.8°F8.2°C 95% 1.2 mph ENE1.9 kmh ENE 9.2 mph14.8 kmh 29.16 in987.5 mb - 0.00 in0.0 mm 0.00 in0.0 mm
03:30 AM 48.3°F9.1°C 46.9°F8.3°C 95% Calm Calm 2.3 mph3.7 kmh 29.16 in987.5 mb - 0.00 in0.0 mm 0.00 in0.0 mm
03:40 AM 48.4°F9.1°C 47.3°F8.5°C 96% 2.3 mph NE3.7 kmh NE 6.9 mph11.1 kmh 29.16 in987.5 mb - 0.00 in0.0 mm 0.00 in0.0 mm
03:50 AM 48.5°F9.2°C 47.4°F8.6°C 96% 4.6 mph ENE7.4 kmh ENE 5.8 mph9.3 kmh 29.16 in987.5 mb - 0.00 in0.0 mm 0.00 in0.0 mm
04:00 AM 48.6°F9.2°C 47.5°F8.6°C 96% 1.2 mph NE1.9 kmh NE 11.5 mph18.5 kmh 29.17 in987.8 mb - 0.00 in0.0 mm 0.00 in0.0 mm
04:10 AM 48.7°F9.3°C 47.6°F8.7°C 96% 2.3 mph NE3.7 kmh NE 8.1 mph13.0 kmh 29.17 in987.8 mb - 0.00 in0.0 mm 0.00 in0.0 mm
04:20 AM 48.8°F9.3°C 47.7°F8.7°C 96% Calm Calm -- 29.17 in987.8 mb - 0.00 in0.0 mm 0.00 in0.0 mm
04:30 AM 48.8°F9.3°C 47.7°F8.7°C 96% Calm Calm -- 29.16 in987.5 mb - 0.00 in0.0 mm 0.00 in0.0 mm
04:40 AM 48.9°F9.4°C 47.8°F8.8°C 96% 2.3 mph E3.7 kmh E 3.5 mph5.6 kmh 29.17 in987.8 mb - 0.00 in0.0 mm 0.00 in0.0 mm
04:50 AM 48.9°F9.4°C 47.8°F8.8°C 96% 1.2 mph NE1.9 kmh NE 4.6 mph7.4 kmh 29.17 in987.8 mb - 0.00 in0.0 mm 0.00 in0.0 mm
05:00 AM 48.9°F9.4°C 47.8°F8.8°C 96% Calm Calm 3.5 mph5.6 kmh 29.17 in987.8 mb - 0.00 in0.0 mm 0.00 in0.0 mm
05:10 AM 48.9°F9.4°C 47.8°F8.8°C 96% 1.2 mph NE1.9 kmh NE 3.5 mph5.6 kmh 29.17 in987.8 mb - 0.00 in0.0 mm 0.00 in0.0 mm
05:20 AM 49.0°F9.4°C 47.9°F8.8°C 96% Calm Calm 3.5 mph5.6 kmh 29.17 in987.8 mb - 0.00 in0.0 mm 0.00 in0.0 mm
05:30 AM 49.0°F9.4°C 47.9°F8.8°C 96% 2.3 mph ENE3.7 kmh ENE 9.2 mph14.8 kmh 29.17 in987.8 mb - 0.00 in0.0 mm 0.00 in0.0 mm
05:40 AM 49.0°F9.4°C 47.9°F8.8°C 96% Calm Calm 1.2 mph1.9 kmh 29.17 in987.8 mb - 0.00 in0.0 mm 0.00 in0.0 mm
05:50 AM 48.9°F9.4°C 47.8°F8.8°C 96% 1.2 mph NE1.9 kmh NE 6.9 mph11.1 kmh 29.17 in987.8 mb - 0.00 in0.0 mm 0.00 in0.0 mm
06:00 AM 48.9°F9.4°C 47.8°F8.8°C 96% Calm Calm -- 29.18 in988.1 mb - 0.00 in0.0 mm 0.00 in0.0 mm
06:10 AM 48.9°F9.4°C 47.8°F8.8°C 96% 1.2 mph NE1.9 kmh NE 6.9 mph11.1 kmh 29.18 in988.1 mb - 0.00 in0.0 mm 0.00 in0.0 mm
06:20 AM 49.0°F9.4°C 47.9°F8.8°C 96% Calm Calm -- 29.18 in988.1 mb - 0.00 in0.0 mm 0.00 in0.0 mm
06:30 AM 49.0°F9.4°C 47.9°F8.8°C 96% 2.3 mph E3.7 kmh E 9.2 mph14.8 kmh 29.19 in988.5 mb - 0.00 in0.0 mm 0.00 in0.0 mm
06:40 AM 49.0°F9.4°C 47.9°F8.8°C 96% 1.2 mph ENE1.9 kmh ENE 6.9 mph11.1 kmh 29.19 in988.5 mb - 0.00 in0.0 mm 0.00 in0.0 mm
06:50 AM 49.0°F9.4°C 47.9°F8.8°C 96% Calm Calm 1.2 mph1.9 kmh 29.19 in988.5 mb - 0.00 in0.0 mm 0.00 in0.0 mm
07:00 AM 49.0°F9.4°C 47.9°F8.8°C 96% Calm Calm 3.5 mph5.6 kmh 29.19 in988.5 mb - 0.00 in0.0 mm 0.00 in0.0 mm
07:10 AM 48.9°F9.4°C 47.8°F8.8°C 96% Calm Calm -- 29.20 in988.8 mb - 0.00 in0.0 mm 0.00 in0.0 mm
07:20 AM 48.8°F9.3°C 47.7°F8.7°C 96% 2.3 mph NE3.7 kmh NE 4.6 mph7.4 kmh 29.20 in988.8 mb - 0.00 in0.0 mm 0.00 in0.0 mm
07:30 AM 48.6°F9.2°C 47.5°F8.6°C 96% 1.2 mph NE1.9 kmh NE 3.5 mph5.6 kmh 29.20 in988.8 mb - 0.00 in0.0 mm 0.00 in0.0 mm
07:40 AM 48.5°F9.2°C 47.4°F8.6°C 96% 1.2 mph NE1.9 kmh NE 4.6 mph7.4 kmh 29.20 in988.8 mb - 0.00 in0.0 mm 0.00 in0.0 mm
07:50 AM 48.4°F9.1°C 47.3°F8.5°C 96% 1.2 mph NE1.9 kmh NE 4.6 mph7.4 kmh 29.21 in989.2 mb - 0.00 in0.0 mm 0.00 in0.0 mm
08:00 AM 48.3°F9.1°C 47.2°F8.4°C 96% Calm Calm -- 29.21 in989.2 mb - 0.00 in0.0 mm 0.00 in0.0 mm
08:10 AM 48.3°F9.1°C 47.2°F8.4°C 96% 1.2 mph NE1.9 kmh NE 5.8 mph9.3 kmh 29.21 in989.2 mb - 0.00 in0.0 mm 0.00 in0.0 mm
08:20 AM 48.3°F9.1°C 47.2°F8.4°C 96% Calm Calm 2.3 mph3.7 kmh 29.22 in989.5 mb - 0.00 in0.0 mm 0.00 in0.0 mm
08:30 AM 48.2°F9.0°C 47.1°F8.4°C 96% 1.2 mph NE1.9 kmh NE 5.8 mph9.3 kmh 29.22 in989.5 mb - 0.00 in0.0 mm 0.00 in0.0 mm
08:40 AM 48.2°F9.0°C 47.1°F8.4°C 96% Calm Calm 4.6 mph7.4 kmh 29.23 in989.8 mb - 0.00 in0.0 mm 0.00 in0.0 mm
08:50 AM 48.3°F9.1°C 47.5°F8.6°C 97% 1.2 mph NE1.9 kmh NE 4.6 mph7.4 kmh 29.23 in989.8 mb - 0.00 in0.0 mm 0.00 in0.0 mm
09:00 AM 48.4°F9.1°C 47.4°F8.6°C 96% 1.2 mph NE1.9 kmh NE 3.5 mph5.6 kmh 29.23 in989.8 mb - 0.00 in0.0 mm 0.00 in0.0 mm
09:10 AM 48.6°F9.2°C 47.8°F8.8°C 97% 1.2 mph NE1.9 kmh NE -- 29.23 in989.8 mb - 0.00 in0.0 mm 0.00 in0.0 mm
09:20 AM 48.6°F9.2°C 47.8°F8.8°C 97% Calm Calm 2.3 mph3.7 kmh 29.24 in990.2 mb - 0.00 in0.0 mm 0.00 in0.0 mm
09:30 AM 48.7°F9.3°C 47.9°F8.8°C 97% Calm Calm -- 29.24 in990.2 mb - 0.01 in0.3 mm 0.01 in0.3 mm
09:40 AM 48.7°F9.3°C 47.9°F8.8°C 97% Calm Calm -- 29.24 in990.2 mb - 0.00 in0.0 mm 0.01 in0.3 mm
09:50 AM 48.8°F9.3°C 48.0°F8.9°C 97% 3.5 mph NE5.6 kmh NE 5.8 mph9.3 kmh 29.25 in990.5 mb - 0.00 in0.0 mm 0.01 in0.3 mm
10:00 AM 49.1°F9.5°C 48.3°F9.1°C 97% 1.2 mph NE1.9 kmh NE 5.8 mph9.3 kmh 29.25 in990.5 mb - 0.00 in0.0 mm 0.01 in0.3 mm
10:10 AM 49.2°F9.6°C 48.4°F9.1°C 97% Calm Calm -- 29.25 in990.5 mb - 0.00 in0.0 mm 0.01 in0.3 mm
10:20 AM 49.3°F9.6°C 48.5°F9.2°C 97% Calm Calm -- 29.26 in990.9 mb - 0.00 in0.0 mm 0.01 in0.3 mm
10:30 AM 49.4°F9.7°C 48.6°F9.2°C 97% Calm Calm 5.8 mph9.3 kmh 29.26 in990.9 mb - 0.00 in0.0 mm 0.01 in0.3 mm
10:40 AM 49.5°F9.7°C 48.7°F9.3°C 97% 2.3 mph ENE3.7 kmh ENE 8.1 mph13.0 kmh 29.26 in990.9 mb - 0.00 in0.0 mm 0.01 in0.3 mm
10:50 AM 49.6°F9.8°C 48.8°F9.3°C 97% Calm Calm 3.5 mph5.6 kmh 29.26 in990.9 mb - 0.00 in0.0 mm 0.01 in0.3 mm
11:00 AM 49.7°F9.8°C 48.9°F9.4°C 97% Calm Calm 1.2 mph1.9 kmh 29.27 in991.2 mb - 0.00 in0.0 mm 0.01 in0.3 mm
11:10 AM 49.8°F9.9°C 49.0°F9.4°C 97% 2.3 mph NE3.7 kmh NE 11.5 mph18.5 kmh 29.27 in991.2 mb - 0.00 in0.0 mm 0.01 in0.3 mm
11:20 AM 50.0°F10.0°C 49.2°F9.6°C 97% Calm Calm 5.8 mph9.3 kmh 29.27 in991.2 mb - 0.00 in0.0 mm 0.01 in0.3 mm
11:30 AM 50.2°F10.1°C 49.4°F9.7°C 97% 1.2 mph NE1.9 kmh NE 8.1 mph13.0 kmh 29.27 in991.2 mb - 0.00 in0.0 mm 0.01 in0.3 mm
11:40 AM 50.3°F10.2°C 49.5°F9.7°C 97% Calm Calm 2.3 mph3.7 kmh 29.27 in991.2 mb - 0.00 in0.0 mm 0.01 in0.3 mm
11:50 AM 50.4°F10.2°C 49.6°F9.8°C 97% Calm Calm 5.8 mph9.3 kmh 29.27 in991.2 mb - 0.00 in0.0 mm 0.01 in0.3 mm
12:00 PM 50.5°F10.3°C 49.7°F9.8°C 97% 1.2 mph NE1.9 kmh NE 6.9 mph11.1 kmh 29.27 in991.2 mb - 0.00 in0.0 mm 0.01 in0.3 mm
12:10 PM 50.6°F10.3°C 49.8°F9.9°C 97% Calm Calm 4.6 mph7.4 kmh 29.28 in991.5 mb - 0.00 in0.0 mm 0.01 in0.3 mm
12:20 PM 50.6°F10.3°C 49.8°F9.9°C 97% Calm Calm 5.8 mph9.3 kmh 29.28 in991.5 mb - 0.00 in0.0 mm 0.01 in0.3 mm
12:30 PM 50.5°F10.3°C 49.7°F9.8°C 97% Calm Calm -- 29.28 in991.5 mb - 0.00 in0.0 mm 0.01 in0.3 mm
12:40 PM 50.5°F10.3°C 49.7°F9.8°C 97% Calm Calm -- 29.28 in991.5 mb - 0.00 in0.0 mm 0.01 in0.3 mm
12:50 PM 50.5°F10.3°C 49.7°F9.8°C 97% Calm Calm -- 29.29 in991.9 mb - 0.00 in0.0 mm 0.01 in0.3 mm
01:00 PM 50.6°F10.3°C 49.8°F9.9°C 97% 1.2 mph NE1.9 kmh NE 6.9 mph11.1 kmh 29.29 in991.9 mb - 0.00 in0.0 mm 0.01 in0.3 mm
01:10 PM 50.6°F10.3°C 49.8°F9.9°C 97% Calm Calm -- 29.29 in991.9 mb - 0.00 in0.0 mm 0.01 in0.3 mm
01:20 PM 50.6°F10.3°C 49.7°F9.8°C 97% Calm Calm -- 29.29 in991.9 mb - 0.00 in0.0 mm 0.01 in0.3 mm
01:30 PM 50.6°F10.3°C 49.8°F9.9°C 97% 2.3 mph NE3.7 kmh NE 8.1 mph13.0 kmh 29.30 in992.2 mb - 0.00 in0.0 mm 0.01 in0.3 mm
01:40 PM 50.5°F10.3°C 49.7°F9.8°C 97% 1.2 mph NE1.9 kmh NE -- 29.30 in992.2 mb - 0.00 in0.0 mm 0.01 in0.3 mm
01:50 PM 50.5°F10.3°C 49.7°F9.8°C 97% Calm Calm 5.8 mph9.3 kmh 29.30 in992.2 mb - 0.00 in0.0 mm 0.01 in0.3 mm
02:00 PM 50.5°F10.3°C 49.7°F9.8°C 97% Calm Calm -- 29.30 in992.2 mb - 0.00 in0.0 mm 0.01 in0.3 mm
02:10 PM 50.7°F10.4°C 49.9°F9.9°C 97% Calm Calm 3.5 mph5.6 kmh 29.31 in992.6 mb - 0.00 in0.0 mm 0.01 in0.3 mm
02:20 PM 50.9°F10.5°C 50.1°F10.1°C 97% Calm Calm -- 29.31 in992.6 mb - 0.00 in0.0 mm 0.01 in0.3 mm
02:30 PM 50.9°F10.5°C 50.1°F10.1°C 97% 2.3 mph NE3.7 kmh NE 5.8 mph9.3 kmh 29.31 in992.6 mb - 0.00 in0.0 mm 0.01 in0.3 mm
02:40 PM 50.9°F10.5°C 50.1°F10.1°C 97% Calm Calm -- 29.31 in992.6 mb - 0.00 in0.0 mm 0.01 in0.3 mm
02:50 PM 50.9°F10.5°C 50.1°F10.1°C 97% Calm Calm -- 29.32 in992.9 mb - 0.00 in0.0 mm 0.01 in0.3 mm
03:00 PM 50.8°F10.4°C 50.0°F10.0°C 97% Calm Calm 3.5 mph5.6 kmh 29.32 in992.9 mb - 0.00 in0.0 mm 0.01 in0.3 mm
03:10 PM 50.8°F10.4°C 50.0°F10.0°C 97% Calm Calm -- 29.32 in992.9 mb - 0.00 in0.0 mm 0.01 in0.3 mm
03:20 PM 50.7°F10.4°C 49.9°F9.9°C 97% Calm Calm -- 29.33 in993.2 mb - 0.00 in0.0 mm 0.01 in0.3 mm
03:30 PM 50.6°F10.3°C 49.8°F9.9°C 97% Calm Calm 2.3 mph3.7 kmh 29.33 in993.2 mb - 0.00 in0.0 mm 0.01 in0.3 mm
03:40 PM 50.6°F10.3°C 49.8°F9.9°C 97% Calm Calm -- 29.34 in993.6 mb - 0.00 in0.0 mm 0.01 in0.3 mm
03:50 PM 50.5°F10.3°C 49.4°F9.7°C 96% Calm Calm -- 29.35 in993.9 mb - 0.00 in0.0 mm 0.01 in0.3 mm
04:00 PM 50.5°F10.3°C 49.4°F9.7°C 96% Calm Calm -- 29.35 in993.9 mb - 0.00 in0.0 mm 0.01 in0.3 mm
04:10 PM 50.4°F10.2°C 49.3°F9.6°C 96% Calm Calm -- 29.35 in993.9 mb - 0.00 in0.0 mm 0.01 in0.3 mm
04:20 PM 50.3°F10.2°C 49.2°F9.6°C 96% Calm Calm -- 29.36 in994.2 mb - 0.00 in0.0 mm 0.01 in0.3 mm
04:30 PM 50.3°F10.2°C 49.2°F9.6°C 96% Calm Calm -- 29.36 in994.2 mb - 0.01 in0.3 mm 0.02 in0.5 mm
04:40 PM 50.3°F10.2°C 49.2°F9.6°C 96% Calm Calm -- 29.36 in994.2 mb - 0.00 in0.0 mm 0.02 in0.5 mm
04:50 PM 50.2°F10.1°C 49.1°F9.5°C 96% Calm Calm -- 29.37 in994.6 mb - 0.00 in0.0 mm 0.02 in0.5 mm
05:00 PM 50.2°F10.1°C 49.4°F9.7°C 97% Calm Calm -- 29.37 in994.6 mb - 0.00 in0.0 mm 0.02 in0.5 mm
05:10 PM 50.2°F10.1°C 49.4°F9.7°C 97% Calm Calm -- 29.38 in994.9 mb - 0.00 in0.0 mm 0.02 in0.5 mm
05:20 PM 50.1°F10.1°C 49.3°F9.6°C 97% Calm Calm -- 29.39 in995.3 mb - 0.00 in0.0 mm 0.02 in0.5 mm
05:30 PM 50.1°F10.1°C 49.3°F9.6°C 97% Calm Calm -- 29.39 in995.3 mb - 0.00 in0.0 mm 0.02 in0.5 mm
05:40 PM 50.0°F10.0°C 48.9°F9.4°C 96% Calm Calm -- 29.39 in995.3 mb - 0.00 in0.0 mm 0.02 in0.5 mm
05:50 PM 49.9°F9.9°C 48.8°F9.3°C 96% Calm Calm -- 29.40 in995.6 mb - 0.00 in0.0 mm 0.02 in0.5 mm
06:00 PM 49.8°F9.9°C 48.7°F9.3°C 96% Calm Calm -- 29.40 in995.6 mb - 0.00 in0.0 mm 0.02 in0.5 mm
06:10 PM 49.7°F9.8°C 48.6°F9.2°C 96% Calm Calm -- 29.41 in995.9 mb - 0.00 in0.0 mm 0.02 in0.5 mm
06:20 PM 49.7°F9.8°C 48.9°F9.4°C 97% Calm Calm -- 29.41 in995.9 mb - 0.00 in0.0 mm 0.02 in0.5 mm
06:30 PM 49.6°F9.8°C 48.8°F9.3°C 97% Calm Calm -- 29.41 in995.9 mb - 0.00 in0.0 mm 0.02 in0.5 mm
06:40 PM 49.6°F9.8°C 48.8°F9.3°C 97% Calm Calm -- 29.42 in996.3 mb - 0.00 in0.0 mm 0.02 in0.5 mm
06:50 PM 49.5°F9.7°C 48.7°F9.3°C 97% Calm Calm -- 29.42 in996.3 mb - 0.00 in0.0 mm 0.02 in0.5 mm
07:00 PM 49.4°F9.7°C 48.6°F9.2°C 97% Calm Calm -- 29.43 in996.6 mb - 0.00 in0.0 mm 0.02 in0.5 mm
07:10 PM 49.4°F9.7°C 48.6°F9.2°C 97% Calm Calm -- 29.43 in996.6 mb - 0.00 in0.0 mm 0.02 in0.5 mm
07:20 PM 49.4°F9.7°C 48.6°F9.2°C 97% Calm Calm -- 29.44 in997.0 mb - 0.00 in0.0 mm 0.02 in0.5 mm
07:30 PM 49.3°F9.6°C 48.5°F9.2°C 97% Calm Calm 1.2 mph1.9 kmh 29.44 in997.0 mb - 0.00 in0.0 mm 0.02 in0.5 mm
07:40 PM 49.3°F9.6°C 48.5°F9.2°C 97% Calm Calm -- 29.44 in997.0 mb - 0.00 in0.0 mm 0.02 in0.5 mm
07:50 PM 49.2°F9.6°C 48.4°F9.1°C 97% Calm Calm -- 29.45 in997.3 mb - 0.00 in0.0 mm 0.02 in0.5 mm
08:00 PM 49.2°F9.6°C 48.4°F9.1°C 97% Calm Calm -- 29.45 in997.3 mb - 0.00 in0.0 mm 0.02 in0.5 mm
08:20 PM 49.1°F9.5°C 48.3°F9.1°C 97% Calm Calm -- 29.46 in997.6 mb - 0.00 in0.0 mm 0.02 in0.5 mm
08:30 PM 49.1°F9.5°C 48.3°F9.1°C 97% Calm Calm -- 29.47 in998.0 mb - 0.00 in0.0 mm 0.02 in0.5 mm
08:40 PM 49.1°F9.5°C 48.3°F9.1°C 97% Calm Calm -- 29.47 in998.0 mb - 0.00 in0.0 mm 0.02 in0.5 mm
08:50 PM 49.1°F9.5°C 48.3°F9.1°C 97% Calm Calm 2.3 mph3.7 kmh 29.47 in998.0 mb - 0.00 in0.0 mm 0.02 in0.5 mm
09:00 PM 49.1°F9.5°C 48.3°F9.1°C 97% 1.2 mph NW1.9 kmh NW 5.8 mph9.3 kmh 29.48 in998.3 mb - 0.00 in0.0 mm 0.02 in0.5 mm
09:10 PM 49.0°F9.4°C 48.2°F9.0°C 97% Calm Calm -- 29.47 in998.0 mb - 0.00 in0.0 mm 0.02 in0.5 mm
09:20 PM 49.0°F9.4°C 48.2°F9.0°C 97% 1.2 mph NW1.9 kmh NW -- 29.47 in998.0 mb - 0.00 in0.0 mm 0.02 in0.5 mm
09:30 PM 48.9°F9.4°C 48.1°F8.9°C 97% Calm Calm -- 29.48 in998.3 mb - 0.00 in0.0 mm 0.02 in0.5 mm
09:40 PM 48.8°F9.3°C 48.0°F8.9°C 97% Calm Calm 1.2 mph1.9 kmh 29.48 in998.3 mb - 0.00 in0.0 mm 0.02 in0.5 mm
09:50 PM 48.8°F9.3°C 48.0°F8.9°C 97% Calm Calm -- 29.48 in998.3 mb - 0.00 in0.0 mm 0.02 in0.5 mm
10:00 PM 48.8°F9.3°C 48.0°F8.9°C 97% Calm Calm -- 29.49 in998.6 mb - 0.00 in0.0 mm 0.02 in0.5 mm
10:10 PM 48.8°F9.3°C 48.0°F8.9°C 97% Calm Calm -- 29.49 in998.6 mb - 0.00 in0.0 mm 0.02 in0.5 mm
10:20 PM 48.7°F9.3°C 47.9°F8.8°C 97% Calm Calm -- 29.49 in998.6 mb - 0.00 in0.0 mm 0.02 in0.5 mm
10:30 PM 48.7°F9.3°C 47.9°F8.8°C 97% Calm Calm -- 29.49 in998.6 mb - 0.00 in0.0 mm 0.02 in0.5 mm
10:40 PM 48.7°F9.3°C 47.9°F8.8°C 97% Calm Calm -- 29.50 in999.0 mb - 0.00 in0.0 mm 0.02 in0.5 mm
10:50 PM 48.7°F9.3°C 47.9°F8.8°C 97% Calm Calm -- 29.50 in999.0 mb - 0.00 in0.0 mm 0.02 in0.5 mm
11:00 PM 48.7°F9.3°C 47.9°F8.8°C 97% Calm Calm -- 29.50 in999.0 mb - 0.00 in0.0 mm 0.02 in0.5 mm
11:10 PM 48.6°F9.2°C 47.8°F8.8°C 97% Calm Calm -- 29.51 in999.3 mb - 0.00 in0.0 mm 0.02 in0.5 mm
11:20 PM 48.6°F9.2°C 47.8°F8.8°C 97% Calm Calm -- 29.51 in999.3 mb - 0.00 in0.0 mm 0.02 in0.5 mm
11:30 PM 48.5°F9.2°C 47.7°F8.7°C 97% Calm Calm -- 29.52 in999.7 mb - 0.00 in0.0 mm 0.02 in0.5 mm
11:40 PM 48.5°F9.2°C 47.7°F8.7°C 97% Calm Calm -- 29.52 in999.7 mb - 0.00 in0.0 mm 0.02 in0.5 mm
11:50 PM 48.5°F9.2°C 47.7°F8.7°C 97% Calm Calm -- 29.52 in999.7 mb - 0.00 in0.0 mm 0.02 in0.5 mm